Time;durP1;ratioP1;P1;durP2;ratioP2;P2;SDS_P1;SDS_P2;PMS_P1;PMS_P2;Temp;Humidity;BMP_temperature;BMP_pressure;BME280_temperature;BME280_humidity;BME280_pressure;Samples;Min_cycle;Max_cycle;Signal;HPM_P1;HPM_P2
2022/06/20 00:02:29;;;;;;;10.15;2.80;;;;;;;15.50;78.73;101255.09;5074901;28;20060;-52
2022/06/20 00:05:26;;;;;;;13.30;3.22;;;;;;;15.53;78.10;101253.69;5065749;28;20048;-48
2022/06/20 00:08:13;;;;;;;11.50;3.15;;;;;;;15.52;78.41;101254.81;5059004;28;20494;-49
2022/06/20 00:11:01;;;;;;;11.75;3.45;;;;;;;15.46;78.08;101248.53;5060460;28;20052;-49
2022/06/20 00:13:51;;;;;;;10.48;3.00;;;;;;;15.48;77.95;101262.00;5070335;28;20048;-49
2022/06/20 00:16:39;;;;;;;12.35;2.80;;;;;;;15.44;77.15;101264.53;5069434;28;20934;-51
2022/06/20 00:19:27;;;;;;;9.63;2.78;;;;;;;15.47;77.71;101265.88;5060104;28;20056;-48
2022/06/20 00:22:15;;;;;;;9.80;2.88;;;;;;;15.45;76.99;101249.66;5073038;28;20048;-48
2022/06/20 00:25:03;;;;;;;9.07;2.80;;;;;;;15.45;76.74;101237.88;5068521;28;20044;-51
2022/06/20 00:27:54;;;;;;;9.07;2.60;;;;;;;15.32;76.77;101240.19;5073766;28;20048;-48
2022/06/20 00:30:42;;;;;;;9.52;2.92;;;;;;;15.28;77.36;101249.28;5074783;28;20059;-52
2022/06/20 00:33:29;;;;;;;9.07;2.90;;;;;;;15.29;76.31;101268.19;5063048;28;20453;-52
2022/06/20 00:36:17;;;;;;;12.10;2.90;;;;;;;15.20;76.18;101291.91;5064773;28;20044;-51
2022/06/20 00:39:05;;;;;;;11.80;3.47;;;;;;;15.14;77.20;101290.31;5074848;28;20043;-51
2022/06/20 00:41:53;;;;;;;8.43;2.55;;;;;;;15.17;76.88;101316.38;5074116;28;20033;-50
2022/06/20 00:44:47;;;;;;;10.13;2.67;;;;;;;15.19;77.12;101323.19;5063561;28;20071;-48
2022/06/20 00:48:00;;;;;;;10.10;3.20;;;;;;;15.25;76.96;101323.97;5053964;28;20123;-50
2022/06/20 00:51:22;;;;;;;12.35;3.10;;;;;;;15.29;77.16;101355.25;5060122;28;20053;-51
2022/06/20 00:54:40;;;;;;;10.07;2.67;;;;;;;15.36;76.75;101380.44;5069415;28;20049;-50
2022/06/20 00:57:50;;;;;;;11.55;3.10;;;;;;;15.41;75.98;101401.56;5063020;28;20514;-52
2022/06/20 01:00:58;;;;;;;8.32;2.80;;;;;;;15.44;75.72;101410.06;5074093;28;20048;-52
2022/06/20 01:04:15;;;;;;;9.60;2.45;;;;;;;15.48;76.10;101438.56;5069070;28;20931;-51
2022/06/20 01:07:26;;;;;;;7.07;2.30;;;;;;;15.49;76.07;101459.47;5059740;28;20487;-51
2022/06/20 01:11:11;;;;;;;6.60;2.38;;;;;;;15.50;76.63;101463.00;5071455;28;20119;-54
2022/06/20 01:14:36;;;;;;;10.18;3.05;;;;;;;15.52;76.76;101433.34;5049913;28;20140;-50
2022/06/20 01:17:43;;;;;;;10.63;2.72;;;;;;;15.54;76.84;101417.41;5066458;28;20434;-50
2022/06/20 01:20:52;;;;;;;9.07;2.47;;;;;;;15.52;76.31;101420.44;5064138;28;20049;-52
2022/06/20 01:24:28;;;;;;;9.43;2.63;;;;;;;15.50;76.50;101405.34;5059835;28;20044;-50
2022/06/20 01:27:39;;;;;;;12.43;3.17;;;;;;;15.45;76.83;101408.13;5066624;28;20045;-51
2022/06/20 01:30:48;;;;;;;11.23;2.88;;;;;;;15.43;76.84;101415.81;5057428;28;20488;-47
2022/06/20 01:33:55;;;;;;;10.98;2.92;;;;;;;15.44;77.82;101395.50;5058586;28;20072;-49
2022/06/20 01:37:23;;;;;;;9.95;3.30;;;;;;;15.44;76.90;101373.53;5051544;28;20127;-50
2022/06/20 01:40:30;;;;;;;10.02;2.83;;;;;;;15.36;77.88;101368.66;5079989;28;20044;-50
2022/06/20 01:43:42;;;;;;;8.02;2.72;;;;;;;15.32;77.23;101361.00;5075051;28;20056;-51
2022/06/20 01:46:48;;;;;;;12.05;3.10;;;;;;;15.21;77.53;101370.41;5067923;28;20045;-48
2022/06/20 01:49:58;;;;;;;8.30;2.50;;;;;;;15.12;78.56;101363.88;5070100;28;20047;-53
2022/06/20 01:53:06;;;;;;;12.02;3.53;;;;;;;15.18;78.39;101354.50;5067609;28;20099;-50
2022/06/20 01:56:04;;;;;;;12.75;3.00;;;;;;;15.21;78.21;101337.47;5054983;28;20056;-53
2022/06/20 01:59:15;;;;;;;10.43;2.83;;;;;;;15.21;77.93;101325.69;5070651;28;20495;-52
2022/06/20 02:02:21;;;;;;;12.77;3.03;;;;;;;15.19;78.15;101323.19;5056292;28;20415;-50
2022/06/20 02:05:30;;;;;;;9.68;2.75;;;;;;;15.09;79.12;101323.28;5067919;28;20407;-55
2022/06/20 02:08:37;;;;;;;7.95;2.22;;;;;;;15.02;79.63;101318.13;5059076;28;20045;-51
2022/06/20 02:11:46;;;;;;;11.85;3.22;;;;;;;14.99;79.58;101315.97;5059216;28;20410;-48
2022/06/20 02:14:57;;;;;;;8.32;2.70;;;;;;;15.03;80.16;101318.94;5063957;28;20085;-47
2022/06/20 02:18:06;;;;;;;10.15;2.67;;;;;;;15.07;79.46;101311.78;5061209;28;20048;-49
2022/06/20 02:21:25;;;;;;;9.35;3.03;;;;;;;15.12;78.84;101317.22;5069816;28;20563;-50
2022/06/20 02:24:38;;;;;;;8.60;2.60;;;;;;;15.08;78.65;101305.16;5071544;28;20044;-51
2022/06/20 02:27:48;;;;;;;7.57;2.53;;;;;;;15.06;78.12;101290.94;5068917;28;20075;-51
2022/06/20 02:30:54;;;;;;;9.32;2.53;;;;;;;14.87;79.01;101277.91;5066241;28;20044;-55
2022/06/20 02:33:42;;;;;;;9.80;3.08;;;;;;;14.77;79.66;101266.16;5059757;28;20079;-51
2022/06/20 02:36:49;;;;;;;11.10;2.58;;;;;;;14.72;79.69;101258.81;5070153;28;20045;-51
2022/06/20 02:40:00;;;;;;;8.68;2.83;;;;;;;14.80;79.71;101265.63;5067163;28;20049;-52
2022/06/20 02:43:17;;;;;;;8.35;2.42;;;;;;;14.89;79.17;101261.16;5070248;28;20063;-51
2022/06/20 02:46:27;;;;;;;9.27;2.80;;;;;;;14.96;78.70;101258.06;5063758;28;20029;-49
2022/06/20 02:49:34;;;;;;;10.50;2.70;;;;;;;14.85;78.31;101260.09;5071563;28;20045;-51
2022/06/20 02:52:48;;;;;;;9.95;2.65;;;;;;;14.77;79.17;101272.50;5068861;28;20044;-49
2022/06/20 02:55:56;;;;;;;6.85;2.10;;;;;;;14.65;79.49;101263.81;5057764;28;20045;-49
2022/06/20 02:59:06;;;;;;;9.93;3.08;;;;;;;14.62;79.98;101242.41;5060847;28;20087;-51
2022/06/20 03:02:14;;;;;;;10.27;3.10;;;;;;;14.58;80.25;101231.22;5068861;28;20461;-51
2022/06/20 03:05:20;;;;;;;10.82;2.75;;;;;;;14.56;80.93;101222.44;5070243;28;20056;-47
2022/06/20 03:08:27;;;;;;;9.77;2.95;;;;;;;14.66;80.62;101230.59;5065527;28;20048;-51
2022/06/20 03:11:37;;;;;;;9.63;2.95;;;;;;;14.66;80.26;101213.31;5071481;28;20052;-49
2022/06/20 03:14:47;;;;;;;7.38;2.33;;;;;;;14.63;79.87;101200.19;5060618;28;20127;-54
2022/06/20 03:17:57;;;;;;;7.03;2.30;;;;;;;14.60;80.48;101204.31;5073470;28;20049;-51
2022/06/20 03:21:03;;;;;;;9.60;2.47;;;;;;;14.57;80.85;101201.31;5072057;28;20048;-51
2022/06/20 03:24:16;;;;;;;9.43;2.50;;;;;;;14.53;80.74;101191.97;5071047;28;20523;-49
2022/06/20 03:27:30;;;;;;;7.53;2.60;;;;;;;14.54;80.78;101193.66;5058579;28;20511;-52
2022/06/20 03:30:37;;;;;;;10.50;2.75;;;;;;;14.61;80.70;101213.34;5070072;28;20077;-47
2022/06/20 03:33:43;;;;;;;7.82;2.70;;;;;;;14.64;80.09;101218.25;5056419;28;20045;-51
2022/06/20 03:36:49;;;;;;;7.53;2.30;;;;;;;14.65;79.68;101225.41;5061223;28;20071;-50
2022/06/20 03:39:55;;;;;;;10.93;3.00;;;;;;;14.64;79.62;101245.69;5061488;28;20037;-50
2022/06/20 03:43:02;;;;;;;9.60;2.58;;;;;;;14.68;79.66;101257.75;5072970;28;20080;-51
2022/06/20 03:46:25;;;;;;;10.20;2.70;;;;;;;14.70;79.46;101266.50;5075549;28;20048;-50
2022/06/20 03:49:36;;;;;;;8.55;2.40;;;;;;;14.69;79.56;101254.69;5058216;28;20123;-52
2022/06/20 03:52:57;;;;;;;8.35;2.65;;;;;;;14.72;79.53;101253.34;5049122;28;20052;-51
2022/06/20 03:56:22;;;;;;;7.00;2.83;;;;;;;14.68;79.47;101272.25;5068536;28;20427;-53
2022/06/20 03:59:42;;;;;;;9.73;2.28;;;;;;;14.64;79.55;101284.91;5068193;28;20087;-52
2022/06/20 04:02:54;;;;;;;8.35;2.90;;;;;;;14.71;79.91;101301.03;5072045;28;20056;-51
2022/06/20 04:06:07;;;;;;;8.57;2.85;;;;;;;14.80;79.46;101288.38;5065641;28;20407;-50
2022/06/20 04:12:57;;;;;;;8.27;2.80;;;;;;;14.95;78.64;101303.09;5071730;28;20049;-50
2022/06/20 04:15:48;;;;;;;;;;;;;;;14.94;78.79;101301.47;5068394;28;20041;-47
2022/06/20 04:19:04;;;;;;;7.30;2.15;;;;;;;14.94;78.58;101301.47;5073247;28;20322;-49
2022/06/20 04:22:16;;;;;;;8.85;2.75;;;;;;;14.86;79.36;101319.31;5072761;28;20578;-52
2022/06/20 04:25:38;;;;;;;7.47;2.67;;;;;;;14.83;79.18;101319.91;5066894;28;20547;-54
2022/06/20 04:29:04;;;;;;;11.98;2.80;;;;;;;14.87;79.85;101315.50;5071142;28;20507;-54
2022/06/20 04:32:10;;;;;;;10.07;3.20;;;;;;;14.73;80.75;101319.97;5071633;28;20049;-54
2022/06/20 04:35:26;;;;;;;8.15;2.40;;;;;;;14.69;81.32;101322.44;5071790;28;20053;-50
2022/06/20 04:38:34;;;;;;;;;;;;;;;14.72;81.10;101332.88;5066165;28;20123;-51
2022/06/20 04:41:46;;;;;;;12.27;3.00;;;;;;;14.79;81.22;101335.28;5062737;28;20417;-51
2022/06/20 04:45:00;;;;;;;10.52;2.90;;;;;;;14.80;81.41;101326.78;5068086;28;20435;-52
2022/06/20 04:48:09;;;;;;;14.65;2.92;;;;;;;14.83;81.37;101337.19;5072896;28;20491;-49
2022/06/20 04:51:18;;;;;;;11.52;3.00;;;;;;;14.82;81.23;101349.28;5071898;28;20044;-47
2022/06/20 04:54:24;;;;;;;10.93;3.05;;;;;;;14.84;81.66;101348.97;5073347;28;20044;-52
2022/06/20 04:57:32;;;;;;;8.63;2.72;;;;;;;14.85;81.60;101345.94;5053107;28;20049;-52
2022/06/20 05:00:44;;;;;;;10.77;2.90;;;;;;;14.81;81.35;101355.84;5051102;28;20419;-52
2022/06/20 05:03:57;;;;;;;8.63;2.72;;;;;;;14.79;81.74;101357.22;5062674;28;20142;-50
2022/06/20 05:07:06;;;;;;;12.40;3.00;;;;;;;14.82;81.62;101357.50;5059812;28;20127;-50
2022/06/20 05:10:23;;;;;;;10.40;2.95;;;;;;;14.83;81.38;101359.13;5056284;28;20056;-54
2022/06/20 05:13:40;;;;;;;11.40;2.90;;;;;;;14.84;81.40;101354.44;5071586;28;20036;-50
2022/06/20 05:16:50;;;;;;;9.68;2.42;;;;;;;14.90;81.57;101365.13;5055828;28;20552;-50
2022/06/20 05:20:00;;;;;;;10.45;2.75;;;;;;;14.97;80.96;101351.09;5065283;28;20507;-54
2022/06/20 05:23:15;;;;;;;7.95;2.58;;;;;;;15.04;80.50;101364.50;5072345;28;20041;-52
2022/06/20 05:26:04;;;;;;;7.72;2.80;;;;;;;15.09;80.46;101365.28;5068945;28;20041;-54
2022/06/20 05:29:27;;;;;;;10.98;3.20;;;;;;;15.15;80.34;101363.31;5066585;28;20053;-49
2022/06/20 05:32:38;;;;;;;10.15;2.88;;;;;;;15.13;79.66;101362.78;5072159;28;20052;-50
2022/06/20 05:35:57;;;;;;;10.43;2.58;;;;;;;15.09;79.86;101383.66;5071756;28;20102;-50
2022/06/20 05:38:59;;;;;;;8.55;2.72;;;;;;;15.06;79.64;101379.56;5069691;28;20037;-50
2022/06/20 05:41:47;;;;;;;6.18;2.22;;;;;;;15.10;80.19;101374.31;5044841;28;20048;-48
2022/06/20 05:44:34;;;;;;;8.50;2.65;;;;;;;15.12;79.85;101369.38;5070981;28;20055;-51
2022/06/20 05:47:25;;;;;;;8.13;2.30;;;;;;;15.15;80.36;101371.53;5071084;28;20483;-54
2022/06/20 05:50:16;;;;;;;7.90;2.50;;;;;;;15.16;80.90;101375.94;5048424;28;20511;-53
2022/06/20 05:53:07;;;;;;;12.10;3.30;;;;;;;15.15;81.26;101371.53;5056810;28;20494;-52
2022/06/20 05:55:57;;;;;;;8.93;2.97;;;;;;;15.10;82.42;101374.31;5062584;28;20033;-48
2022/06/20 05:58:45;;;;;;;8.05;2.65;;;;;;;15.08;82.84;101368.28;5064742;28;20045;-52
2022/06/20 06:01:35;;;;;;;15.07;3.40;;;;;;;15.11;83.37;101373.22;5068889;28;20041;-54
2022/06/20 06:04:32;;;;;;;11.40;3.13;;;;;;;15.09;83.82;101375.44;5068781;28;20489;-51
2022/06/20 06:07:44;;;;;;;10.43;3.10;;;;;;;15.06;83.70;101370.53;5061526;28;20041;-51
2022/06/20 06:10:37;;;;;;;10.13;3.03;;;;;;;15.12;84.06;101372.13;5062178;28;20044;-52
2022/06/20 06:13:52;;;;;;;11.40;3.20;;;;;;;15.15;84.24;101385.25;5059195;28;20055;-52
2022/06/20 06:16:59;;;;;;;11.52;3.10;;;;;;;15.19;84.16;101391.84;5039925;28;20412;-52
2022/06/20 06:19:48;;;;;;;9.55;3.08;;;;;;;15.21;83.47;101389.63;5065784;28;20048;-53
2022/06/20 06:22:39;;;;;;;13.73;3.20;;;;;;;15.22;83.08;101396.75;5072293;28;20045;-52
2022/06/20 06:25:23;;;;;;;10.07;2.92;;;;;;;15.25;82.38;101393.44;5047763;28;20044;-54
2022/06/20 06:28:19;;;;;;;12.32;3.08;;;;;;;15.22;82.51;101396.75;5068870;28;20098;-50
2022/06/20 06:31:18;;;;;;;9.70;2.97;;;;;;;15.20;82.34;101396.22;5072534;28;20049;-50
2022/06/20 06:34:44;;;;;;;9.90;2.95;;;;;;;15.08;82.75;101395.75;5038035;28;20443;-51
2022/06/20 06:37:45;;;;;;;9.50;2.78;;;;;;;15.09;82.23;101397.41;5050403;28;20048;-54
2022/06/20 06:40:46;;;;;;;10.55;3.17;;;;;;;15.08;82.83;101396.59;5065457;28;20049;-56
2022/06/20 06:43:39;;;;;;;12.13;3.20;;;;;;;15.04;82.36;101397.44;5054459;28;20049;-53
2022/06/20 06:46:38;;;;;;;11.52;3.03;;;;;;;15.09;83.02;101400.13;5071061;28;20043;-52
2022/06/20 06:49:42;;;;;;;10.63;3.40;;;;;;;15.08;81.58;101410.31;5053386;28;20049;-56
2022/06/20 06:52:42;;;;;;;13.25;3.72;;;;;;;15.06;81.88;101407.03;5050055;28;20041;-60
2022/06/20 06:55:41;;;;;;;12.32;3.00;;;;;;;15.13;80.88;101406.72;5055641;28;20494;-54
2022/06/20 06:59:02;;;;;;;10.80;3.10;;;;;;;15.19;79.38;101415.72;5061005;28;20055;-54
2022/06/20 07:01:55;;;;;;;9.48;3.15;;;;;;;15.19;79.04;101419.28;5024931;28;20495;-54
2022/06/20 07:05:03;;;;;;;8.85;2.60;;;;;;;15.08;78.84;101425.94;5072612;28;20078;-55
2022/06/20 07:07:58;;;;;;;8.98;2.83;;;;;;;15.07;78.49;101424.31;5076934;28;20383;-55
2022/06/20 07:10:52;;;;;;;9.73;2.95;;;;;;;15.07;78.18;101427.84;5073063;28;20044;-53
2022/06/20 07:13:43;;;;;;;10.65;3.20;;;;;;;15.11;78.66;101430.88;5071492;28;20042;-55
2022/06/20 07:17:02;;;;;;;10.60;3.13;;;;;;;15.20;77.63;101428.34;5066117;28;20051;-54
2022/06/20 07:19:51;;;;;;;10.85;3.10;;;;;;;15.19;75.97;101438.50;5071065;28;20041;-55
2022/06/20 07:22:41;;;;;;;8.10;2.80;;;;;;;15.27;76.81;101435.16;5067578;28;20098;-56
2022/06/20 07:25:37;;;;;;;9.38;3.08;;;;;;;15.39;76.53;101425.75;5075512;28;20048;-56
2022/06/20 07:28:41;;;;;;;;;;;;;;;15.40;74.28;101435.63;5076101;28;20475;-52
2022/06/20 07:31:34;;;;;;;10.80;2.97;;;;;;;15.49;75.19;101437.47;5066124;28;19927;-57
2022/06/20 07:34:38;;;;;;;9.32;2.72;;;;;;;15.50;74.73;101430.06;5075673;28;20396;-54
2022/06/20 07:37:37;;;;;;;10.65;2.97;;;;;;;15.52;72.23;101441.59;5074822;28;20055;-57
2022/06/20 07:40:36;;;;;;;9.25;2.70;;;;;;;15.54;71.23;101436.63;5074971;28;20051;-55
2022/06/20 07:43:33;;;;;;;9.85;2.58;;;;;;;15.61;70.82;101434.38;5063157;28;20057;-54
2022/06/20 07:46:30;;;;;;;9.30;2.90;;;;;;;15.73;71.17;101431.28;5075619;28;20066;-53
2022/06/20 07:49:39;;;;;;;10.13;3.00;;;;;;;15.73;68.44;101437.59;5074558;28;20051;-51
2022/06/20 07:52:34;;;;;;;10.85;3.20;;;;;;;15.63;69.63;101439.56;5071819;28;20491;-53
2022/06/20 07:55:25;;;;;;;9.63;2.80;;;;;;;15.60;70.50;101437.41;5064495;28;20052;-55
2022/06/20 07:58:27;;;;;;;7.50;2.67;;;;;;;15.64;70.46;101443.97;5074049;28;20041;-56
2022/06/20 08:01:17;;;;;;;13.15;2.80;;;;;;;15.74;70.68;101444.72;5054888;28;20106;-48
2022/06/20 08:04:10;;;;;;;10.13;3.00;;;;;;;15.86;69.52;101447.09;5063399;28;20140;-50
2022/06/20 08:07:20;;;;;;;9.13;2.60;;;;;;;15.88;68.45;101441.31;4364074;28;10000050;-49
2022/06/20 08:10:24;;;;;;;6.43;2.67;;;;;;;15.85;68.20;101452.88;5049391;28;20077;-54
2022/06/20 08:12:56;;;;;;;10.40;3.30;;;;;;;15.84;67.77;101443.81;5044254;28;20128;-55
2022/06/20 08:15:59;;;;;;;9.38;3.30;;;;;;;15.82;67.51;101456.19;5038077;28;20094;-51
2022/06/20 08:18:47;;;;;;;10.02;2.55;;;;;;;15.82;66.98;101461.69;5064258;28;20135;-53
2022/06/20 08:21:43;;;;;;;11.50;2.90;;;;;;;15.82;67.34;101461.69;5053579;28;20555;-49
2022/06/20 08:24:17;;;;;;;8.52;3.00;;;;;;;15.80;67.57;101458.41;5064462;28;20041;-54
2022/06/20 08:27:10;;;;;;;9.93;3.00;;;;;;;15.79;66.10;101456.78;5064085;28;20052;-51
2022/06/20 08:30:26;;;;;;;10.48;3.40;;;;;;;15.77;67.61;101466.13;5060798;28;20049;-51
2022/06/20 08:33:20;;;;;;;8.43;3.28;;;;;;;15.81;67.54;101460.06;5036584;28;20057;-52
2022/06/20 08:36:19;;;;;;;6.18;2.70;;;;;;;15.82;67.21;101467.19;5051244;28;20053;-51
2022/06/20 08:39:41;;;;;;;9.07;3.30;;;;;;;15.84;66.87;101481.47;5050496;28;20044;-51
2022/06/20 08:42:38;;;;;;;9.05;3.05;;;;;;;15.82;66.43;101469.94;5049264;28;20068;-52
2022/06/20 08:45:47;;;;;;;9.15;3.30;;;;;;;15.90;64.63;101469.34;5052147;28;20116;-52
2022/06/20 08:49:06;;;;;;;10.48;3.33;;;;;;;16.01;63.75;101492.88;5053674;28;20052;-53
2022/06/20 08:52:08;;;;;;;10.45;2.80;;;;;;;16.13;60.71;101473.25;5050290;28;20049;-50
2022/06/20 08:55:23;;;;;;;7.60;2.90;;;;;;;16.22;60.61;101487.19;5050444;28;20041;-52
2022/06/20 08:58:27;;;;;;;10.23;3.72;;;;;;;16.22;60.53;101487.19;5050638;28;20049;-54
2022/06/20 09:01:50;;;;;;;8.73;3.17;;;;;;;16.35;61.56;101492.00;5048820;28;20045;-53
2022/06/20 09:04:59;;;;;;;9.43;2.78;;;;;;;16.39;56.17;101487.56;5012910;28;20053;-53
2022/06/20 09:08:11;;;;;;;7.95;2.75;;;;;;;16.44;57.10;101489.44;5024541;28;20060;-51
2022/06/20 09:11:43;;;;;;;6.60;3.03;;;;;;;16.57;58.71;101492.31;5025536;28;20060;-52
2022/06/20 09:14:31;;;;;;;13.95;3.33;;;;;;;16.59;57.42;101505.78;4966463;28;20443;-51
2022/06/20 09:17:54;;;;;;;7.72;2.97;;;;;;;16.54;59.11;101492.06;4969286;28;20054;-50
2022/06/20 09:21:05;;;;;;;8.25;2.90;;;;;;;16.52;58.51;101500.59;4977319;28;20458;-50
2022/06/20 09:24:32;;;;;;;12.40;3.40;;;;;;;16.56;57.38;101503.63;5025310;28;20630;-53
2022/06/20 09:27:39;;;;;;;7.68;3.10;;;;;;;16.64;55.92;101494.72;5032403;28;20052;-50
2022/06/20 09:30:58;;;;;;;13.65;3.70;;;;;;;16.71;55.05;101503.44;5027263;28;20053;-53
2022/06/20 09:34:17;;;;;;;11.23;3.50;;;;;;;16.70;56.49;101503.75;5032893;28;20052;-53
2022/06/20 09:37:19;;;;;;;7.68;3.00;;;;;;;16.71;56.41;101494.38;5020366;28;20064;-51
2022/06/20 09:40:32;;;;;;;7.18;2.60;;;;;;;16.77;54.93;101498.72;5011271;28;20140;-51
2022/06/20 09:43:39;;;;;;;8.65;3.20;;;;;;;16.88;54.44;101500.22;5032591;28;20554;-51
2022/06/20 09:46:46;;;;;;;7.80;3.25;;;;;;;16.99;54.01;101504.50;5029043;28;20064;-53
2022/06/20 09:49:47;;;;;;;9.30;3.38;;;;;;;17.04;54.25;101507.19;5030208;28;20417;-52
2022/06/20 09:53:17;;;;;;;12.45;3.90;;;;;;;16.97;55.96;101501.22;5029087;28;20058;-53
2022/06/20 09:56:19;;;;;;;11.52;3.25;;;;;;;16.91;54.28;101505.19;5039407;28;20049;-54
2022/06/20 09:59:07;;;;;;;9.30;3.33;;;;;;;16.93;54.74;101502.94;5027980;28;20045;-52
2022/06/20 10:02:14;;;;;;;10.98;3.60;;;;;;;16.90;54.26;101510.97;5019989;28;20404;-53
2022/06/20 10:05:05;;;;;;;12.43;3.75;;;;;;;16.92;54.54;101494.97;5065751;28;20048;-49
2022/06/20 10:08:02;;;;;;;11.38;3.53;;;;;;;17.00;54.78;101500.66;5057515;28;20053;-49
2022/06/20 10:10:54;;;;;;;12.48;3.90;;;;;;;17.09;54.68;101489.78;5071168;28;20044;-52
2022/06/20 10:13:50;;;;;;;13.98;3.90;;;;;;;17.16;54.71;101508.72;5056018;28;20043;-49
2022/06/20 10:16:53;;;;;;;11.73;3.50;;;;;;;17.17;55.08;101508.44;5050527;28;20057;-51
2022/06/20 10:20:22;;;;;;;13.15;4.07;;;;;;;17.19;52.74;101516.38;4862564;28;10001046;-52
2022/06/20 10:23:25;;;;;;;;;;;;;;;17.25;52.43;101506.94;5061063;28;20767;-50
2022/06/20 10:26:49;;;;;;;12.43;3.80;;;;;;;17.28;52.91;101509.09;5067407;28;19951;-51
2022/06/20 10:30:02;;;;;;;14.20;3.67;;;;;;;17.39;53.24;101510.59;5067718;28;20446;-53
2022/06/20 10:32:38;;;;;;;10.95;3.53;;;;;;;17.42;54.29;101514.69;5058064;28;20040;-54
2022/06/20 10:35:43;;;;;;;12.75;3.85;;;;;;;17.46;53.48;101505.53;5051643;28;20048;-54
2022/06/20 10:38:42;;;;;;;13.48;4.38;;;;;;;17.52;53.55;101522.00;5064978;28;20119;-52
2022/06/20 10:41:49;;;;;;;10.52;3.42;;;;;;;17.57;53.55;101516.41;5065992;28;20041;-48
2022/06/20 10:45:00;;;;;;;12.00;3.90;;;;;;;17.58;53.49;101518.88;5055858;28;20049;-52
2022/06/20 10:48:13;;;;;;;14.40;4.50;;;;;;;17.66;55.03;101522.88;5061984;28;20052;-52
2022/06/20 10:51:09;;;;;;;12.15;3.80;;;;;;;17.75;54.01;101532.13;5061715;28;20127;-53
2022/06/20 10:54:21;;;;;;;13.32;3.90;;;;;;;17.77;54.33;101531.81;5052202;28;20478;-51
2022/06/20 10:57:21;;;;;;;11.45;3.53;;;;;;;17.73;52.85;101526.09;5059871;28;20052;-51
2022/06/20 11:00:14;;;;;;;12.02;3.88;;;;;;;17.83;52.41;101539.72;5044906;28;20049;-50
2022/06/20 11:03:20;;;;;;;8.13;3.25;;;;;;;17.97;51.72;101536.22;5053748;28;20520;-50
2022/06/20 11:06:23;;;;;;;9.80;3.60;;;;;;;17.96;52.21;101542.84;5037036;28;20061;-52
2022/06/20 11:09:39;;;;;;;8.70;3.95;;;;;;;17.87;52.86;101542.69;5054812;28;20427;-51
2022/06/20 11:13:00;;;;;;;14.32;4.88;;;;;;;17.92;53.81;101541.78;5028891;28;20060;-52
2022/06/20 11:16:18;;;;;;;10.30;3.90;;;;;;;17.89;53.56;101543.22;5048790;28;20052;-52
2022/06/20 11:19:18;;;;;;;10.07;3.03;;;;;;;17.87;51.45;101543.53;5040963;28;20124;-51
2022/06/20 11:22:15;;;;;;;7.18;3.25;;;;;;;17.89;51.56;101545.97;5058176;28;20053;-51
2022/06/20 11:25:17;;;;;;;14.88;3.70;;;;;;;17.91;50.10;101542.94;5039658;28;20045;-54
2022/06/20 11:28:30;;;;;;;9.23;3.28;;;;;;;17.98;50.49;101546.13;5037003;28;20061;-54
2022/06/20 11:31:26;;;;;;;10.75;3.83;;;;;;;18.04;51.39;101547.69;5035413;28;20052;-55
2022/06/20 11:34:31;;;;;;;12.98;3.28;;;;;;;18.12;50.80;101543.44;5048892;28;20049;-56
2022/06/20 11:37:29;;;;;;;9.00;2.95;;;;;;;18.19;47.35;101541.91;5047995;28;20048;-56
2022/06/20 11:40:38;;;;;;;11.60;3.38;;;;;;;18.22;47.73;101540.50;5064523;28;20056;-56
2022/06/20 11:43:53;;;;;;;11.52;3.30;;;;;;;18.29;48.68;101538.16;5039988;28;20103;-52
2022/06/20 11:47:07;;;;;;;12.55;3.50;;;;;;;18.36;50.34;101537.78;5053869;28;20049;-51
2022/06/20 11:49:57;;;;;;;8.73;3.17;;;;;;;18.34;49.27;101534.50;5064599;28;20056;-49
2022/06/20 11:52:56;;;;;;;8.82;3.15;;;;;;;18.42;48.87;101537.34;5040161;28;20058;-53
2022/06/20 11:55:49;;;;;;;8.98;3.08;;;;;;;18.45;46.35;101547.00;5062956;28;20060;-51
2022/06/20 11:59:08;;;;;;;9.10;3.20;;;;;;;18.39;47.35;101534.41;5040375;28;20056;-50
2022/06/20 12:02:18;;;;;;;13.63;3.67;;;;;;;18.40;47.69;101547.06;5048616;28;20060;-52
2022/06/20 12:05:17;;;;;;;8.95;2.88;;;;;;;18.33;48.00;101541.97;5071364;28;20053;-53
2022/06/20 12:08:50;;;;;;;9.70;2.85;;;;;;;18.36;46.68;101540.53;5064854;28;20076;-52
2022/06/20 12:11:52;;;;;;;7.75;2.70;;;;;;;18.46;47.32;101545.84;5058956;28;20061;-50
2022/06/20 12:15:16;;;;;;;11.20;2.67;;;;;;;18.54;46.18;101545.16;5054115;28;20055;-52
2022/06/20 12:18:23;;;;;;;8.95;3.00;;;;;;;18.50;45.44;101546.91;5061627;28;20400;-52
2022/06/20 12:24:21;;;;;;;9.68;2.60;;;;;;;18.46;45.69;101543.91;5058007;28;20067;-55
2022/06/20 12:26:50;;;;;;;7.93;2.55;;;;;;;18.58;45.39;101528.81;5070941;28;20036;-51
2022/06/20 12:29:37;;;;;;;6.72;2.65;;;;;;;18.72;44.33;101535.16;5073449;28;20047;-52
2022/06/20 12:32:28;;;;;;;9.10;2.58;;;;;;;18.72;44.52;101541.50;5070854;28;20045;-48
2022/06/20 12:35:28;;;;;;;7.18;2.45;;;;;;;18.74;45.72;101543.97;5073779;28;20057;-53
2022/06/20 12:38:43;;;;;;;7.18;2.60;;;;;;;18.79;46.48;101540.31;5073066;28;20051;-50
2022/06/20 12:41:32;;;;;;;;;;;;;;;18.88;46.14;101538.47;5068618;28;20040;-51
2022/06/20 12:44:37;;;;;;;11.60;3.33;;;;;;;18.86;46.12;101546.25;5054774;28;19928;-50
2022/06/20 12:47:51;;;;;;;10.07;3.33;;;;;;;18.85;46.57;101541.84;5072997;28;20132;-52
2022/06/20 12:50:55;;;;;;;6.82;2.70;;;;;;;18.85;47.91;101539.88;5070406;28;20044;-52
2022/06/20 12:54:04;;;;;;;10.64;2.98;;;;;;;18.89;47.59;101551.16;4717983;28;10001055;-56
2022/06/20 12:57:00;;;;;;;13.00;3.75;;;;;;;18.91;47.43;101549.72;5068190;28;20044;-53
2022/06/20 12:59:59;;;;;;;10.48;3.03;;;;;;;18.97;46.49;101549.63;5068306;28;20048;-51
2022/06/20 13:03:10;;;;;;;9.90;2.95;;;;;;;18.98;46.92;101549.31;5068354;28;20056;-52
2022/06/20 13:06:22;;;;;;;10.07;3.38;;;;;;;19.00;46.69;101560.88;5065572;28;20135;-53
2022/06/20 13:09:22;;;;;;;8.48;3.03;;;;;;;18.84;47.20;101559.53;5058999;28;20044;-52
2022/06/20 13:12:38;;;;;;;9.93;3.00;;;;;;;18.86;47.17;101565.59;5073802;28;20044;-52
2022/06/20 13:15:29;;;;;;;14.40;3.25;;;;;;;18.83;47.57;101553.22;5059828;28;20449;-51
2022/06/20 13:18:58;;;;;;;13.02;3.45;;;;;;;18.89;47.58;101563.00;5073031;28;20390;-50
2022/06/20 13:21:49;;;;;;;9.68;3.00;;;;;;;18.87;46.72;101575.50;5066528;28;20048;-48
2022/06/20 13:25:00;;;;;;;9.82;3.20;;;;;;;18.92;46.89;101562.41;5041286;28;20055;-53
2022/06/20 13:27:58;;;;;;;10.48;3.00;;;;;;;19.01;46.69;101570.78;5045928;28;20053;-52
2022/06/20 13:31:07;;;;;;;10.38;3.42;;;;;;;18.97;45.64;101580.81;5060338;28;20052;-52
2022/06/20 13:34:21;;;;;;;11.13;3.00;;;;;;;18.88;45.82;101572.44;5070548;28;20055;-51
2022/06/20 13:37:27;;;;;;;8.52;2.95;;;;;;;18.84;46.84;101573.34;5069560;28;20045;-54
2022/06/20 13:40:20;;;;;;;10.23;3.30;;;;;;;18.90;46.26;101569.34;5065890;28;20063;-54
2022/06/20 13:43:19;;;;;;;12.07;3.08;;;;;;;18.88;46.77;101568.84;5059044;28;20051;-54
2022/06/20 13:46:25;;;;;;;8.00;2.72;;;;;;;19.00;50.23;101569.16;5065346;28;20044;-51
2022/06/20 13:49:16;;;;;;;7.53;2.80;;;;;;;19.15;48.35;101573.56;5015060;28;20049;-56
2022/06/20 13:52:43;;;;;;;8.70;2.83;;;;;;;19.26;49.63;101577.72;5071635;28;20040;-52
2022/06/20 13:55:38;;;;;;;9.75;3.42;;;;;;;19.40;50.62;101577.72;5051808;28;20384;-50
2022/06/20 13:58:39;;;;;;;9.00;3.00;;;;;;;19.53;48.92;101576.03;5072607;28;20078;-55
2022/06/20 14:01:36;;;;;;;9.43;3.00;;;;;;;19.55;46.58;101587.63;5055109;28;20053;-51
2022/06/20 14:04:24;;;;;;;9.45;2.70;;;;;;;19.53;47.64;101574.13;5061447;28;20057;-50
2022/06/20 14:07:11;;;;;;;6.35;2.75;;;;;;;19.53;47.20;101587.94;5053800;28;20040;-55
2022/06/20 14:10:00;;;;;;;6.03;2.63;;;;;;;19.53;48.41;101587.94;5054263;28;20044;-51
2022/06/20 14:12:50;;;;;;;9.32;2.42;;;;;;;19.53;48.84;101581.56;5058040;28;20087;-51
2022/06/20 14:15:41;;;;;;;7.93;2.60;;;;;;;19.51;47.82;101587.44;5053240;28;20550;-54
2022/06/20 14:18:29;;;;;;;8.73;2.45;;;;;;;19.52;48.10;101585.47;5066847;28;20044;-53
2022/06/20 14:21:17;;;;;;;8.48;2.67;;;;;;;19.50;47.68;101580.25;5045450;28;20045;-51